Terminal Aerodrome Forecast
Issued by NWS

Current Version | Previous Version | Text Only | Print | Product List | Glossary On
Versions: 1 2 3 4 5 6 7 8 9 10 11 12 13 14
466
FTPA31 PHFO 242343
TAFHJH
TAF
PHJH 242343Z 2500/2524 06018G25KT P6SM SCT050
     FM251900 06012G20KT P6SM SCT050
      AMD NOT SKED AFT 250400=

USA.gov is the U.S. government's official web portal to all federal, state and local government web resources and services.